Time;durP1;ratioP1;P1;durP2;ratioP2;P2;SDS_P1;SDS_P2;PMS_P1;PMS_P2;Temp;Humidity;BMP_temperature;BMP_pressure;BME280_temperature;BME280_humidity;BME280_pressure;Samples;Min_cycle;Max_cycle;Signal;HPM_P1;HPM_P2
2020/12/28 00:03:19;;;;;;;1.20;1.20;;;7.50;96.90;;;;;;10316758;28;20211;-78
2020/12/28 00:08:21;;;;;;;1.10;1.00;;;7.50;97.00;;;;;;10334144;28;20191;-78
2020/12/28 00:13:23;;;;;;;1.10;0.93;;;7.50;97.40;;;;;;10317469;28;20203;-78
2020/12/28 00:18:25;;;;;;;0.90;0.90;;;7.40;97.40;;;;;;10316079;28;20231;-79
2020/12/28 00:23:27;;;;;;;1.30;1.20;;;7.20;97.40;;;;;;10316319;28;20204;-79
2020/12/28 00:28:28;;;;;;;1.23;1.10;;;7.10;97.60;;;;;;10315893;28;20199;-78
2020/12/28 00:33:31;;;;;;;1.10;1.10;;;7.00;97.90;;;;;;10332127;28;20195;-78
2020/12/28 00:38:32;;;;;;;1.20;1.20;;;6.90;98.00;;;;;;10331982;28;20227;-78
2020/12/28 00:43:34;;;;;;;0.90;0.90;;;6.80;98.10;;;;;;10313171;28;20203;-78
2020/12/28 00:48:36;;;;;;;0.90;0.90;;;6.80;98.80;;;;;;10312798;28;20246;-78
2020/12/28 00:53:38;;;;;;;1.03;1.03;;;6.70;98.60;;;;;;10312301;28;20188;-78
2020/12/28 00:58:41;;;;;;;1.40;1.07;;;6.60;98.90;;;;;;10328648;28;20313;-78
2020/12/28 01:03:44;;;;;;;1.10;1.10;;;6.50;99.30;;;;;;10329573;28;20245;-78
2020/12/28 01:09:07;;;;;;;1.47;1.20;;;6.50;99.30;;;;;;10301002;28;20219;-78
2020/12/28 01:14:09;;;;;;;1.33;1.23;;;6.50;99.50;;;;;;10309902;28;20258;-78
2020/12/28 01:19:12;;;;;;;1.27;1.17;;;6.50;99.60;;;;;;10310803;28;20241;-78
2020/12/28 01:24:15;;;;;;;1.07;1.03;;;6.50;99.70;;;;;;10296894;28;20198;-79
2020/12/28 01:29:19;;;;;;;1.03;1.03;;;6.40;99.90;;;;;;10297158;28;20227;-79
2020/12/28 01:34:25;;;;;;;1.20;1.20;;;6.40;99.90;;;;;;10310407;28;20203;-79
2020/12/28 01:39:33;;;;;;;1.00;1.00;;;6.40;99.90;;;;;;10310721;28;20227;-79
2020/12/28 01:44:35;;;;;;;1.20;1.13;;;6.40;99.90;;;;;;10328112;28;20278;-78
2020/12/28 01:49:51;;;;;;;1.30;1.20;;;6.40;99.90;;;;;;10233363;29;20216;-79
2020/12/28 01:54:53;;;;;;;1.07;1.00;;;6.30;99.90;;;;;;10233738;29;20688;-79
2020/12/28 01:59:56;;;;;;;1.40;1.30;;;6.30;99.90;;;;;;10232907;29;20272;-79
2020/12/28 02:05:16;;;;;;;1.90;1.80;;;6.20;99.90;;;;;;10255127;28;20200;-78
2020/12/28 02:10:20;;;;;;;1.10;1.10;;;6.10;99.90;;;;;;10258916;28;20227;-78
2020/12/28 02:15:23;;;;;;;1.33;1.17;;;6.00;99.90;;;;;;10266007;28;20710;-78
2020/12/28 02:20:44;;;;;;;1.33;1.27;;;6.00;99.90;;;;;;10279084;28;20281;-78
2020/12/28 02:25:47;;;;;;;1.33;1.23;;;6.00;99.90;;;;;;10278029;28;20231;-78
2020/12/28 02:30:49;;;;;;;1.53;1.33;;;6.10;99.90;;;;;;10278282;28;20233;-78
2020/12/28 02:36:10;;;;;;;1.40;1.40;;;6.20;99.90;;;;;;10296633;28;20352;-79
2020/12/28 02:41:12;;;;;;;1.20;1.20;;;6.30;99.90;;;;;;10278358;28;20212;-79
2020/12/28 02:46:32;;;;;;;1.40;1.30;;;6.40;99.90;;;;;;10275394;28;20204;-79
2020/12/28 02:51:53;;;;;;;1.90;1.80;;;6.40;99.90;;;;;;10276092;28;20227;-79
2020/12/28 02:57:14;;;;;;;1.50;1.40;;;6.40;99.90;;;;;;10275457;28;20231;-78
2020/12/28 03:02:54;;;;;;;1.40;1.40;;;6.40;99.90;;;;;;10129951;29;20274;-79
2020/12/28 03:08:14;;;;;;;1.53;1.43;;;6.30;99.90;;;;;;10265353;28;20287;-79
2020/12/28 03:13:35;;;;;;;1.53;1.50;;;6.20;99.90;;;;;;10294371;28;20192;-79
2020/12/28 03:18:55;;;;;;;2.53;1.30;;;6.20;99.90;;;;;;10328652;28;20310;-79
2020/12/28 03:24:16;;;;;;;1.50;1.40;;;6.20;99.90;;;;;;10332765;28;20194;-79
2020/12/28 03:29:37;;;;;;;1.40;1.30;;;6.10;99.90;;;;;;10313756;28;20309;-79
2020/12/28 03:34:57;;;;;;;1.50;1.40;;;6.10;99.90;;;;;;10331181;28;20191;-79
2020/12/28 03:40:17;;;;;;;1.60;1.50;;;6.10;99.90;;;;;;10333167;28;20251;-79
2020/12/28 03:45:38;;;;;;;1.40;1.40;;;6.00;99.90;;;;;;10337578;28;20195;-79
2020/12/28 03:50:58;;;;;;;1.37;1.37;;;6.00;99.90;;;;;;10337872;28;20231;-79
2020/12/28 03:56:18;;;;;;;1.40;1.30;;;5.90;99.90;;;;;;10338855;28;20245;-79
2020/12/28 04:01:39;;;;;;;1.40;1.40;;;5.90;99.90;;;;;;10338288;28;20624;-79
2020/12/28 04:06:59;;;;;;;1.30;1.20;;;5.90;99.90;;;;;;10338320;28;20202;-78
2020/12/28 04:12:39;;;;;;;1.40;1.40;;;5.80;99.90;;;;;;10158540;29;20230;-78
2020/12/28 04:17:42;;;;;;;1.67;1.57;;;5.80;99.90;;;;;;10301860;28;20646;-79
2020/12/28 04:22:44;;;;;;;1.50;1.40;;;5.70;99.90;;;;;;10338571;28;20350;-79
2020/12/28 04:27:45;;;;;;;1.43;1.37;;;5.60;99.90;;;;;;10338144;28;20199;-79
2020/12/28 04:32:48;;;;;;;1.23;1.20;;;5.60;99.90;;;;;;10329909;23;20231;-84
2020/12/28 04:37:51;;;;;;;1.30;1.30;;;5.50;99.90;;;;;;10285778;28;20617;-84
2020/12/28 04:42:53;;;;;;;1.60;1.50;;;5.50;99.90;;;;;;10285390;28;20258;-82
2020/12/28 04:47:57;;;;;;;1.13;1.13;;;5.50;99.90;;;;;;10281115;28;20211;-83
2020/12/28 04:52:59;;;;;;;1.20;1.20;;;5.40;99.90;;;;;;10266889;28;20220;-84
2020/12/28 04:58:01;;;;;;;1.67;1.60;;;5.40;99.90;;;;;;10278153;28;20220;-83
2020/12/28 05:03:03;;;;;;;2.00;1.90;;;5.40;99.90;;;;;;10260656;28;20248;-83
2020/12/28 05:08:05;;;;;;;1.50;1.50;;;5.30;99.90;;;;;;10269903;28;20196;-82
2020/12/28 05:13:08;;;;;;;1.10;1.10;;;5.30;99.90;;;;;;10279912;28;20234;-82
2020/12/28 05:18:10;;;;;;;1.33;1.30;;;5.40;99.90;;;;;;10284816;28;20232;-84
2020/12/28 05:23:12;;;;;;;1.30;1.30;;;5.50;99.90;;;;;;10264352;28;20409;-84
2020/12/28 05:28:16;;;;;;;1.60;1.50;;;5.50;99.90;;;;;;10298828;28;20275;-83
2020/12/28 05:33:19;;;;;;;1.20;1.20;;;5.60;99.90;;;;;;10299065;28;20254;-84
2020/12/28 05:38:21;;;;;;;1.70;1.60;;;5.60;99.90;;;;;;10281427;28;20224;-83
2020/12/28 05:43:28;;;;;;;1.50;1.50;;;5.70;99.90;;;;;;10262202;28;20330;-84
2020/12/28 05:48:34;;;;;;;1.40;1.30;;;5.80;99.90;;;;;;10273982;28;20189;-81
2020/12/28 05:53:42;;;;;;;1.80;1.70;;;5.80;99.90;;;;;;10242518;29;20192;-82
2020/12/28 05:58:44;;;;;;;2.43;2.23;;;5.90;99.90;;;;;;10258454;29;20220;-82
2020/12/28 06:03:48;;;;;;;1.50;1.50;;;6.00;99.90;;;;;;10240977;29;20211;-82
2020/12/28 06:08:51;;;;;;;1.90;1.80;;;6.10;99.90;;;;;;10239791;29;20188;-82
2020/12/28 06:13:53;;;;;;;1.90;1.80;;;6.00;99.90;;;;;;10257717;29;20211;-82
2020/12/28 06:18:56;;;;;;;2.10;2.00;;;6.00;99.90;;;;;;10252677;29;20224;-82
2020/12/28 06:23:57;;;;;;;1.63;1.60;;;6.10;99.90;;;;;;10225914;29;20206;-84
2020/12/28 06:29:06;;;;;;;1.70;1.60;;;6.00;99.90;;;;;;10257706;29;20223;-84
2020/12/28 06:34:18;;;;;;;1.60;1.50;;;6.10;99.90;;;;;;10243886;29;20298;-83
2020/12/28 06:39:19;;;;;;;2.23;2.13;;;6.00;99.90;;;;;;10226710;29;20224;-84
2020/12/28 06:44:27;;;;;;;1.97;1.87;;;6.10;99.90;;;;;;10225403;29;20292;-83
2020/12/28 06:49:41;;;;;;;2.23;2.13;;;6.10;99.90;;;;;;10297142;28;20216;-83
2020/12/28 06:54:43;;;;;;;2.57;2.47;;;6.10;99.90;;;;;;10284014;28;20219;-83
2020/12/28 06:59:49;;;;;;;2.30;2.20;;;6.00;99.90;;;;;;10282862;28;20235;-82
2020/12/28 07:04:52;;;;;;;2.30;2.20;;;6.00;99.90;;;;;;10302737;28;20197;-82
2020/12/28 07:09:53;;;;;;;1.70;1.67;;;6.00;99.90;;;;;;10258351;28;20589;-82
2020/12/28 07:15:02;;;;;;;2.40;2.30;;;6.00;99.90;;;;;;10275142;28;20203;-82
2020/12/28 07:20:07;;;;;;;2.60;2.40;;;6.00;99.90;;;;;;10282634;28;20251;-82
2020/12/28 07:25:10;;;;;;;2.73;2.63;;;5.90;99.90;;;;;;10266366;28;20204;-83
2020/12/28 07:30:13;;;;;;;3.03;2.83;;;5.90;99.90;;;;;;10299269;28;20226;-84
2020/12/28 07:35:18;;;;;;;2.50;2.40;;;5.90;99.90;;;;;;10283427;28;20204;-84
2020/12/28 07:40:20;;;;;;;2.60;2.50;;;5.90;99.90;;;;;;10299315;28;20485;-82
2020/12/28 07:45:23;;;;;;;2.60;2.40;;;5.90;99.90;;;;;;10299877;28;20220;-82
2020/12/28 07:50:26;;;;;;;2.47;2.37;;;5.90;99.90;;;;;;10282290;28;20223;-83
2020/12/28 07:55:34;;;;;;;2.60;2.50;;;5.90;99.90;;;;;;10267766;28;20200;-83
2020/12/28 08:00:41;;;;;;;2.73;2.63;;;5.90;99.90;;;;;;10264943;28;20235;-84
2020/12/28 08:05:45;;;;;;;3.50;3.30;;;5.90;99.90;;;;;;10297218;28;20203;-82
2020/12/28 08:10:54;;;;;;;2.83;2.73;;;5.90;99.90;;;;;;10297278;28;20219;-82
2020/12/28 08:16:07;;;;;;;2.90;2.80;;;6.00;99.90;;;;;;10265095;28;20218;-83
2020/12/28 08:21:10;;;;;;;3.83;3.53;;;6.00;99.90;;;;;;10264129;28;20278;-82
2020/12/28 08:26:17;;;;;;;2.57;2.47;;;5.90;99.90;;;;;;10283612;28;20668;-82
2020/12/28 08:31:25;;;;;;;2.70;2.60;;;6.00;99.90;;;;;;10298960;28;20234;-84
2020/12/28 08:36:28;;;;;;;2.47;1.63;;;6.00;99.90;;;;;;10283546;28;20215;-83
2020/12/28 08:41:29;;;;;;;2.77;2.67;;;6.00;99.90;;;;;;10286917;28;20217;-83
2020/12/28 08:46:31;;;;;;;2.47;2.37;;;6.00;99.90;;;;;;10249464;28;20189;-82
2020/12/28 08:51:34;;;;;;;2.60;2.50;;;5.90;99.90;;;;;;10249223;28;20224;-83
2020/12/28 08:56:37;;;;;;;2.87;2.77;;;5.90;99.90;;;;;;10261073;28;20275;-84
2020/12/28 09:01:39;;;;;;;2.80;2.70;;;5.90;99.90;;;;;;10265426;28;20227;-83
2020/12/28 09:06:41;;;;;;;2.80;2.70;;;6.00;99.90;;;;;;10262464;28;20202;-83
2020/12/28 09:11:43;;;;;;;2.73;2.63;;;6.00;99.90;;;;;;10250551;28;20212;-82
2020/12/28 09:16:45;;;;;;;3.60;2.90;;;6.00;99.90;;;;;;10279782;28;20226;-83
2020/12/28 09:21:47;;;;;;;2.60;2.50;;;5.90;99.90;;;;;;10245135;28;20225;-81
2020/12/28 09:26:49;;;;;;;1.83;1.73;;;5.90;99.90;;;;;;10291518;28;20196;-82
2020/12/28 09:31:51;;;;;;;3.17;3.03;;;5.90;99.90;;;;;;10284915;28;20262;-82
2020/12/28 09:37:00;;;;;;;3.10;3.00;;;5.90;99.90;;;;;;10288529;28;20303;-82
2020/12/28 09:42:02;;;;;;;2.63;2.53;;;5.90;99.90;;;;;;10265335;28;20220;-84
2020/12/28 09:47:04;;;;;;;4.13;3.93;;;5.90;99.90;;;;;;10261053;28;20200;-84
2020/12/28 09:52:06;;;;;;;3.40;3.30;;;6.00;99.90;;;;;;10262363;28;20921;-82
2020/12/28 09:57:08;;;;;;;3.30;3.20;;;6.00;99.90;;;;;;10273956;28;20212;-84
2020/12/28 10:02:10;;;;;;;3.40;3.20;;;6.00;99.90;;;;;;10306195;28;20303;-84
2020/12/28 10:07:12;;;;;;;3.50;3.30;;;6.10;99.90;;;;;;10256691;28;20204;-83
2020/12/28 10:12:14;;;;;;;4.70;4.30;;;6.30;99.90;;;;;;10264453;28;20310;-83
2020/12/28 10:17:16;;;;;;;3.83;3.53;;;6.40;99.90;;;;;;10250351;28;20223;-83
2020/12/28 10:22:18;;;;;;;2.97;2.77;;;6.50;99.90;;;;;;10249693;28;20222;-81
2020/12/28 10:27:20;;;;;;;3.17;2.97;;;6.60;99.90;;;;;;10241795;28;20216;-82
2020/12/28 10:32:22;;;;;;;3.17;2.97;;;6.70;99.90;;;;;;10299248;23;20282;-80
2020/12/28 10:37:24;;;;;;;3.40;3.20;;;6.70;99.90;;;;;;10248066;28;20217;-80
2020/12/28 10:42:26;;;;;;;3.80;3.57;;;6.80;99.90;;;;;;10267029;28;20221;-80
2020/12/28 10:47:27;;;;;;;4.70;4.30;;;6.90;99.90;;;;;;10260205;28;20188;-79
2020/12/28 10:52:30;;;;;;;4.90;4.60;;;7.00;99.90;;;;;;10272054;28;20591;-80
2020/12/28 10:57:32;;;;;;;4.43;4.13;;;7.00;99.90;;;;;;10247927;29;20216;-79
2020/12/28 11:02:34;;;;;;;5.83;4.40;;;7.00;99.90;;;;;;10241032;28;20267;-79
2020/12/28 11:07:36;;;;;;;4.90;4.50;;;7.00;99.90;;;;;;10278794;28;20256;-80
2020/12/28 11:12:38;;;;;;;3.70;3.50;;;7.00;99.90;;;;;;10293550;28;20700;-79
2020/12/28 11:17:39;;;;;;;5.00;4.70;;;7.00;99.90;;;;;;10249278;28;20243;-79
2020/12/28 11:22:42;;;;;;;4.70;4.43;;;7.10;99.90;;;;;;10244451;28;20641;-79
2020/12/28 11:27:44;;;;;;;4.77;4.47;;;7.10;99.90;;;;;;10256651;29;20669;-79
2020/12/28 11:32:46;;;;;;;4.47;4.17;;;7.20;99.90;;;;;;10234032;29;20295;-79
2020/12/28 11:37:48;;;;;;;4.23;4.03;;;7.20;99.90;;;;;;10218830;29;20894;-80
2020/12/28 11:42:50;;;;;;;3.87;3.57;;;7.20;99.90;;;;;;10219162;29;20224;-80
2020/12/28 11:47:51;;;;;;;3.73;3.53;;;7.30;99.90;;;;;;10219424;29;20203;-80
2020/12/28 11:52:54;;;;;;;3.37;3.13;;;7.30;99.90;;;;;;10253149;29;20235;-80
2020/12/28 11:57:55;;;;;;;3.07;2.87;;;7.40;99.90;;;;;;10245378;29;20720;-79
2020/12/28 12:02:57;;;;;;;3.73;3.43;;;7.40;99.90;;;;;;10232605;28;20753;-79
2020/12/28 12:07:59;;;;;;;3.37;3.17;;;7.40;99.90;;;;;;10235209;29;20193;-80
2020/12/28 12:13:01;;;;;;;4.10;3.80;;;7.40;99.90;;;;;;10234871;29;20244;-80
2020/12/28 12:18:03;;;;;;;3.90;3.60;;;7.40;99.90;;;;;;10219711;29;20322;-80
2020/12/28 12:23:06;;;;;;;3.90;3.60;;;7.50;99.90;;;;;;10235278;29;20809;-80
2020/12/28 12:28:07;;;;;;;4.03;3.73;;;7.50;99.90;;;;;;10218020;29;20200;-80
2020/12/28 12:33:09;;;;;;;3.77;3.47;;;7.50;99.90;;;;;;10235222;29;20358;-80
2020/12/28 12:38:11;;;;;;;3.40;3.10;;;7.60;99.90;;;;;;10252210;29;20216;-80
2020/12/28 12:43:13;;;;;;;3.77;3.50;;;7.60;99.90;;;;;;10218589;29;20726;-80
2020/12/28 12:48:14;;;;;;;3.50;3.20;;;7.50;99.90;;;;;;10235915;29;20200;-80
2020/12/28 12:53:18;;;;;;;4.73;4.43;;;7.50;99.90;;;;;;10234843;29;20263;-80
2020/12/28 12:58:20;;;;;;;4.03;3.83;;;7.40;99.90;;;;;;10259144;28;20576;-80
2020/12/28 13:03:21;;;;;;;3.50;3.30;;;7.20;99.90;;;;;;10290642;28;20298;-80
2020/12/28 13:08:24;;;;;;;2.50;2.40;;;7.10;99.90;;;;;;10290341;28;20597;-79
2020/12/28 13:13:25;;;;;;;3.93;3.60;;;7.00;99.90;;;;;;10256134;28;20232;-79
2020/12/28 13:18:27;;;;;;;3.10;3.00;;;7.00;99.90;;;;;;10243078;29;20866;-79
2020/12/28 13:23:30;;;;;;;3.20;3.07;;;6.90;99.90;;;;;;10234161;29;20685;-80
2020/12/28 13:28:31;;;;;;;3.00;2.80;;;6.90;99.90;;;;;;10217990;29;20315;-79
2020/12/28 13:33:33;;;;;;;3.17;2.97;;;6.80;99.90;;;;;;10216286;29;20323;-80
2020/12/28 13:38:41;;;;;;;2.23;2.13;;;6.70;99.90;;;;;;10570377;27;20526;-79
2020/12/28 13:43:43;;;;;;;2.67;2.57;;;6.70;99.90;;;;;;10552317;28;20215;-79
2020/12/28 13:48:45;;;;;;;2.03;1.93;;;6.60;99.90;;;;;;10555388;28;20201;-79
2020/12/28 13:53:47;;;;;;;2.93;2.63;;;6.50;99.90;;;;;;10570699;28;20223;-79
2020/12/28 13:58:49;;;;;;;3.23;3.03;;;6.40;99.90;;;;;;10568543;28;20199;-79
2020/12/28 14:03:51;;;;;;;3.33;2.80;;;6.40;99.90;;;;;;10569465;28;20214;-79
2020/12/28 14:08:54;;;;;;;2.20;2.10;;;6.30;99.90;;;;;;10549646;28;20195;-79
2020/12/28 14:13:56;;;;;;;3.00;2.80;;;6.40;99.90;;;;;;10565798;28;20199;-79
2020/12/28 14:18:58;;;;;;;2.63;2.43;;;6.40;99.90;;;;;;10550112;28;20210;-79
2020/12/28 14:24:01;;;;;;;1.80;1.70;;;6.40;99.90;;;;;;10550716;28;20259;-79
2020/12/28 14:29:03;;;;;;;1.93;1.83;;;6.40;99.90;;;;;;10559755;28;20188;-78
2020/12/28 14:34:05;;;;;;;1.90;1.80;;;6.40;99.90;;;;;;10550515;28;20235;-79
2020/12/28 14:39:07;;;;;;;1.80;1.70;;;6.30;99.90;;;;;;10552853;28;20199;-79
2020/12/28 14:44:09;;;;;;;1.70;1.70;;;6.30;99.90;;;;;;10554269;28;20663;-79
2020/12/28 14:49:10;;;;;;;1.73;1.63;;;6.20;99.90;;;;;;10506657;28;20215;-79
2020/12/28 14:54:14;;;;;;;1.97;1.87;;;6.30;99.90;;;;;;10502985;28;20220;-79
2020/12/28 14:59:16;;;;;;;2.03;1.93;;;6.20;99.90;;;;;;10516129;28;20303;-79
2020/12/28 15:04:17;;;;;;;2.30;2.20;;;6.20;99.90;;;;;;10529630;28;20507;-79
2020/12/28 15:09:20;;;;;;;2.00;1.90;;;6.20;99.90;;;;;;10512808;28;20220;-79
2020/12/28 15:14:21;;;;;;;2.60;2.40;;;6.20;99.90;;;;;;10511074;28;20674;-79
2020/12/28 15:19:23;;;;;;;2.07;1.97;;;6.20;99.90;;;;;;10511386;28;20216;-80
2020/12/28 15:24:25;;;;;;;2.80;2.60;;;6.20;99.90;;;;;;10522119;28;20382;-80
2020/12/28 15:29:27;;;;;;;3.00;2.90;;;6.20;99.90;;;;;;10499115;28;20765;-79
2020/12/28 15:34:29;;;;;;;2.63;2.43;;;6.20;99.90;;;;;;10497172;28;20226;-79
2020/12/28 15:39:31;;;;;;;2.00;1.90;;;6.20;99.90;;;;;;10507526;28;20224;-79
2020/12/28 15:44:33;;;;;;;1.90;1.80;;;6.10;99.90;;;;;;10500823;28;20195;-78
2020/12/28 15:49:34;;;;;;;1.73;1.63;;;6.10;99.90;;;;;;10498452;28;20228;-80
2020/12/28 15:54:39;;;;;;;2.10;2.00;;;6.10;99.90;;;;;;10491093;28;20216;-79
2020/12/28 15:59:41;;;;;;;2.00;1.90;;;6.20;99.90;;;;;;10540488;28;20215;-79
2020/12/28 16:04:42;;;;;;;1.97;1.87;;;6.20;99.90;;;;;;10520676;28;20256;-79
2020/12/28 16:09:45;;;;;;;1.60;1.50;;;6.20;99.90;;;;;;10544099;28;20690;-79
2020/12/28 16:14:47;;;;;;;1.77;1.67;;;6.20;99.90;;;;;;10526431;28;20205;-79
2020/12/28 16:19:48;;;;;;;1.33;1.23;;;6.10;99.90;;;;;;10521095;28;20220;-79
2020/12/28 16:24:51;;;;;;;1.93;1.83;;;6.10;99.90;;;;;;10515118;28;20291;-79
2020/12/28 16:29:52;;;;;;;2.20;2.10;;;6.10;99.90;;;;;;10525852;22;20241;-82
2020/12/28 16:34:54;;;;;;;1.63;1.40;;;6.20;99.90;;;;;;10401442;28;20220;-83
2020/12/28 16:39:57;;;;;;;1.27;1.17;;;6.10;99.90;;;;;;10392358;28;20221;-84
2020/12/28 16:44:58;;;;;;;2.43;2.23;;;6.10;99.90;;;;;;10390339;28;20206;-82
2020/12/28 16:50:00;;;;;;;1.73;1.63;;;6.10;99.90;;;;;;10396269;28;20221;-83
2020/12/28 16:55:03;;;;;;;1.63;1.53;;;6.10;99.90;;;;;;10406123;28;20292;-84
2020/12/28 17:00:06;;;;;;;1.30;1.20;;;6.10;99.90;;;;;;10406463;28;20217;-83
2020/12/28 17:05:07;;;;;;;1.23;1.13;;;6.00;99.90;;;;;;10391123;28;20233;-82
2020/12/28 17:10:10;;;;;;;1.80;1.33;;;6.00;99.90;;;;;;10400854;28;20591;-84
2020/12/28 17:15:12;;;;;;;2.27;1.60;;;6.00;99.90;;;;;;10398383;28;20228;-83
2020/12/28 17:20:13;;;;;;;2.20;1.97;;;5.90;99.90;;;;;;10389941;28;20701;-84
2020/12/28 17:25:16;;;;;;;2.37;2.00;;;5.90;99.90;;;;;;10406888;28;20200;-82
2020/12/28 17:30:17;;;;;;;1.87;1.77;;;5.90;99.90;;;;;;10407174;28;20645;-83
2020/12/28 17:35:19;;;;;;;2.70;2.50;;;5.80;99.90;;;;;;10382860;28;20761;-82
2020/12/28 17:40:22;;;;;;;4.63;2.77;;;5.80;99.90;;;;;;10385568;28;20257;-82
2020/12/28 17:45:23;;;;;;;1.83;1.60;;;5.80;99.90;;;;;;10387850;28;20198;-82
2020/12/28 17:50:25;;;;;;;2.10;1.70;;;5.80;99.90;;;;;;10414315;28;20241;-84
2020/12/28 17:55:28;;;;;;;2.27;2.03;;;5.80;99.90;;;;;;10414526;28;20225;-84
2020/12/28 18:00:29;;;;;;;3.00;2.23;;;5.70;99.90;;;;;;10394746;28;20724;-82
2020/12/28 18:05:36;;;;;;;2.17;2.03;;;5.70;99.90;;;;;;10392424;28;20205;-82
2020/12/28 18:10:40;;;;;;;3.30;3.07;;;5.60;99.90;;;;;;10421805;28;20287;-84
2020/12/28 18:15:43;;;;;;;3.10;2.90;;;5.60;99.90;;;;;;10394863;28;20614;-82
2020/12/28 18:20:45;;;;;;;3.20;3.00;;;5.70;99.90;;;;;;10371498;28;20218;-84
2020/12/28 18:25:47;;;;;;;4.10;3.80;;;5.70;99.90;;;;;;10394327;28;20650;-83
2020/12/28 18:30:49;;;;;;;6.40;5.80;;;5.60;99.90;;;;;;10396807;28;20671;-83
2020/12/28 18:35:50;;;;;;;4.80;4.40;;;5.50;99.90;;;;;;10414797;28;20221;-83
2020/12/28 18:40:53;;;;;;;4.87;3.87;;;5.30;99.90;;;;;;10398906;28;20217;-82
2020/12/28 18:45:55;;;;;;;6.83;6.23;;;5.20;99.90;;;;;;10418248;28;20617;-83
2020/12/28 18:51:01;;;;;;;3.67;3.37;;;5.10;99.90;;;;;;10403110;28;20229;-83
2020/12/28 18:56:07;;;;;;;16.60;12.93;;;4.90;99.90;;;;;;10404019;28;20230;-84
2020/12/28 19:01:09;;;;;;;7.13;6.30;;;4.80;99.90;;;;;;10422024;28;20240;-82
2020/12/28 19:06:10;;;;;;;6.70;6.10;;;4.60;99.90;;;;;;10432975;28;20344;-83
2020/12/28 19:11:13;;;;;;;7.30;6.60;;;4.50;99.90;;;;;;10421781;28;20343;-84
2020/12/28 19:16:15;;;;;;;6.20;5.70;;;4.40;99.90;;;;;;10398489;28;20624;-80
2020/12/28 19:21:19;;;;;;;9.53;8.53;;;4.30;99.90;;;;;;10425723;28;20221;-82
2020/12/28 19:26:22;;;;;;;8.10;7.40;;;4.20;99.90;;;;;;10420435;28;20197;-82
2020/12/28 19:31:23;;;;;;;7.90;7.13;;;4.10;99.90;;;;;;10419723;28;20229;-82
2020/12/28 19:36:25;;;;;;;9.20;7.70;;;4.10;99.90;;;;;;10420946;28;20224;-82
2020/12/28 19:41:28;;;;;;;6.20;5.70;;;4.00;99.90;;;;;;10423701;28;20215;-82
2020/12/28 19:46:29;;;;;;;4.50;4.20;;;4.00;99.90;;;;;;10415666;28;20191;-82
2020/12/28 19:51:32;;;;;;;4.90;4.50;;;4.00;99.90;;;;;;10425496;28;20210;-84
2020/12/28 19:56:37;;;;;;;4.30;4.00;;;4.00;99.90;;;;;;10407885;28;20230;-81
2020/12/28 20:01:39;;;;;;;4.43;4.13;;;3.90;99.90;;;;;;10420060;28;20309;-80
2020/12/28 20:06:41;;;;;;;7.30;6.70;;;3.90;99.90;;;;;;10415599;28;20214;-82
2020/12/28 20:11:44;;;;;;;5.87;5.37;;;3.90;99.90;;;;;;10435214;28;20313;-80
2020/12/28 20:16:49;;;;;;;5.00;4.60;;;3.90;99.90;;;;;;10404643;28;20218;-81
2020/12/28 20:21:51;;;;;;;5.00;4.50;;;3.90;99.90;;;;;;10424574;28;20229;-82
2020/12/28 20:26:53;;;;;;;5.80;5.23;;;3.90;99.90;;;;;;10435979;28;20680;-83
2020/12/28 20:32:00;;;;;;;8.47;7.63;;;3.90;99.90;;;;;;10418953;28;20233;-84
2020/12/28 20:37:02;;;;;;;7.70;6.90;;;3.90;99.90;;;;;;10411707;28;20217;-80
2020/12/28 20:42:05;;;;;;;5.93;5.23;;;3.90;99.90;;;;;;10435621;28;20281;-81
2020/12/28 20:47:07;;;;;;;5.43;4.93;;;4.00;99.90;;;;;;10437133;28;20216;-84
2020/12/28 20:52:08;;;;;;;5.27;4.77;;;4.10;99.90;;;;;;10436949;28;20217;-81
2020/12/28 20:57:11;;;;;;;4.83;4.33;;;4.20;99.90;;;;;;10420283;28;20217;-83
2020/12/28 21:02:12;;;;;;;4.70;4.30;;;4.30;99.90;;;;;;10420784;28;20667;-84
2020/12/28 21:07:16;;;;;;;4.30;3.90;;;4.50;99.90;;;;;;10438525;28;20202;-79
2020/12/28 21:12:19;;;;;;;5.23;4.30;;;4.60;99.90;;;;;;10438557;28;20229;-83
2020/12/28 21:17:20;;;;;;;3.87;3.57;;;4.70;99.90;;;;;;10422778;28;20217;-83
2020/12/28 21:22:22;;;;;;;3.40;3.17;;;4.80;99.90;;;;;;10418507;28;20357;-84
2020/12/28 21:27:24;;;;;;;3.87;3.47;;;4.90;99.90;;;;;;10405813;28;21236;-85
2020/12/28 21:32:26;;;;;;;3.40;3.10;;;5.00;99.90;;;;;;10403612;28;20263;-82
2020/12/28 21:37:31;;;;;;;3.23;2.93;;;5.00;99.90;;;;;;10411893;28;20697;-82
2020/12/28 21:42:36;;;;;;;3.50;3.23;;;5.10;99.90;;;;;;10413430;28;20218;-85
2020/12/28 21:47:37;;;;;;;3.60;3.30;;;5.20;99.90;;;;;;10417724;28;20214;-83
2020/12/28 21:52:39;;;;;;;4.00;3.60;;;5.20;99.90;;;;;;10408647;28;20250;-82
2020/12/28 21:57:42;;;;;;;4.00;3.63;;;5.20;99.90;;;;;;10400767;28;20222;-83
2020/12/28 22:02:44;;;;;;;4.90;3.07;;;5.20;99.90;;;;;;10435676;28;20228;-83
2020/12/28 22:07:45;;;;;;;3.50;3.20;;;5.10;99.90;;;;;;10441672;28;20221;-83
2020/12/28 22:12:53;;;;;;;4.20;3.53;;;5.10;99.90;;;;;;10438088;28;20744;-83
2020/12/28 22:17:55;;;;;;;3.53;3.20;;;5.10;99.90;;;;;;10436937;28;20213;-84
2020/12/28 22:22:57;;;;;;;3.97;3.67;;;5.00;99.90;;;;;;10427730;28;20237;-82
2020/12/28 22:27:59;;;;;;;4.00;3.63;;;5.00;99.90;;;;;;10477908;28;20693;-83
2020/12/28 22:33:01;;;;;;;4.30;3.90;;;4.90;99.90;;;;;;10422655;28;20272;-85
2020/12/28 22:38:03;;;;;;;4.43;4.13;;;4.90;99.90;;;;;;10418174;28;20226;-83
2020/12/28 22:43:05;;;;;;;3.83;3.60;;;4.90;99.90;;;;;;10418611;28;20301;-83
2020/12/28 22:48:07;;;;;;;4.47;4.10;;;4.90;99.90;;;;;;10400273;28;20202;-83
2020/12/28 22:53:08;;;;;;;4.80;4.33;;;4.90;99.90;;;;;;10417387;28;20218;-82
2020/12/28 22:58:11;;;;;;;4.53;4.03;;;4.80;99.90;;;;;;10400835;28;20660;-82
2020/12/28 23:03:13;;;;;;;4.27;3.87;;;4.80;99.90;;;;;;10381299;28;20680;-84
2020/12/28 23:08:14;;;;;;;4.00;3.70;;;4.80;99.90;;;;;;10361388;28;20209;-82
2020/12/28 23:13:17;;;;;;;4.27;3.97;;;4.80;99.90;;;;;;10359666;28;20232;-83
2020/12/28 23:18:19;;;;;;;3.87;3.57;;;4.90;99.90;;;;;;10360600;28;20238;-82
2020/12/28 23:23:21;;;;;;;3.50;3.30;;;4.90;99.90;;;;;;10402943;28;20217;-82
2020/12/28 23:28:23;;;;;;;4.03;3.73;;;4.90;99.90;;;;;;10439628;28;20757;-82
2020/12/28 23:33:25;;;;;;;4.00;3.73;;;4.90;99.90;;;;;;10417041;28;20272;-82
2020/12/28 23:38:26;;;;;;;4.10;3.83;;;4.90;99.90;;;;;;10397888;28;20278;-84
2020/12/28 23:43:30;;;;;;;4.27;3.97;;;5.00;99.90;;;;;;10396816;28;20883;-83
2020/12/28 23:48:31;;;;;;;3.80;3.47;;;5.10;99.90;;;;;;10397060;28;20193;-82
2020/12/28 23:53:37;;;;;;;3.90;3.60;;;5.20;99.90;;;;;;10415700;28;20209;-84
2020/12/28 23:58:40;;;;;;;3.03;2.83;;;5.30;99.90;;;;;;10413864;28;20450;-84
